createdAt,value
2019-01-04T00:00:47.944Z,-2.30
2019-01-04T00:03:18.494Z,-2.40
2019-01-04T00:05:49.124Z,-2.30
2019-01-04T00:08:19.770Z,-2.30
2019-01-04T00:10:50.707Z,-2.20
2019-01-04T00:13:22.269Z,-2.10
2019-01-04T00:15:53.499Z,-2.20
2019-01-04T00:18:24.339Z,-2.20
2019-01-04T00:20:54.874Z,-2.30
2019-01-04T00:23:25.516Z,-2.20
2019-01-04T00:25:56.104Z,-2.20
2019-01-04T00:28:26.719Z,-2.10
2019-01-04T00:30:57.524Z,-2.10
2019-01-04T00:33:27.890Z,-2.20
2019-01-04T00:35:58.439Z,-2.20
2019-01-04T00:38:29.038Z,-2.20
2019-01-04T00:40:59.422Z,-2.20
2019-01-04T00:43:30.111Z,-2.60
2019-01-04T00:46:00.994Z,-2.80
2019-01-04T00:48:31.554Z,-2.60
2019-01-04T00:51:02.499Z,-2.60
2019-01-04T00:53:33.326Z,-2.50
2019-01-04T00:56:30.134Z,-2.50
2019-01-04T00:59:55.759Z,-2.50
2019-01-04T01:03:06.432Z,-3.20
2019-01-04T01:06:28.239Z,-3.40
2019-01-04T01:09:53.014Z,-3.10
2019-01-04T01:13:09.794Z,-3.40
2019-01-04T01:16:30.524Z,-3.10
2019-01-04T01:19:53.184Z,-2.80
2019-01-04T01:22:56.994Z,-2.70
2019-01-04T01:26:20.334Z,-2.70
2019-01-04T01:29:31.005Z,-2.70
2019-01-04T01:32:37.674Z,-2.70
2019-01-04T01:36:02.314Z,-2.80
2019-01-04T01:39:31.289Z,-3.10
2019-01-04T01:42:40.654Z,-3.30
2019-01-04T01:45:45.794Z,-3.20
2019-01-04T01:49:02.559Z,-3.20
2019-01-04T01:52:00.818Z,-3.20
2019-01-04T01:54:31.429Z,-3.10
2019-01-04T01:57:01.994Z,-3.10
2019-01-04T01:59:32.744Z,-3.00
2019-01-04T02:02:03.230Z,-2.90
2019-01-04T02:04:33.774Z,-2.90
2019-01-04T02:07:04.374Z,-3.10
2019-01-04T02:09:34.874Z,-3.50
2019-01-04T02:12:05.327Z,-3.60
2019-01-04T02:14:35.759Z,-3.80
2019-01-04T02:17:06.199Z,-3.60
2019-01-04T02:19:36.834Z,-3.50
2019-01-04T02:22:07.354Z,-3.50
2019-01-04T02:24:37.763Z,-3.60
2019-01-04T02:27:08.364Z,-3.50
2019-01-04T02:29:38.954Z,-3.40
2019-01-04T02:32:09.497Z,-3.30
2019-01-04T02:34:39.819Z,-3.30
2019-01-04T02:37:10.264Z,-3.30
2019-01-04T02:39:40.649Z,-3.30
2019-01-04T02:42:11.174Z,-3.40
2019-01-04T02:44:41.615Z,-3.70
2019-01-04T02:47:12.089Z,-4.40
2019-01-04T02:49:42.529Z,-4.00
2019-01-04T02:52:12.960Z,-3.70
2019-01-04T02:54:43.369Z,-3.40
2019-01-04T02:57:13.800Z,-3.30
2019-01-04T02:59:44.414Z,-3.30
2019-01-04T03:02:14.974Z,-3.20
2019-01-04T03:04:45.460Z,-3.30
2019-01-04T03:07:15.959Z,-3.40
2019-01-04T03:09:46.469Z,-3.40
2019-01-04T03:12:16.819Z,-3.30
2019-01-04T03:15:13.604Z,-3.40
2019-01-04T03:17:43.060Z,-3.60
2019-01-04T03:20:13.580Z,-3.40
2019-01-04T03:22:43.988Z,-3.20
2019-01-04T03:25:14.574Z,-3.30
2019-01-04T03:27:44.994Z,-3.50
2019-01-04T03:30:15.390Z,-3.60
2019-01-04T03:32:46.135Z,-3.90
2019-01-04T03:35:16.804Z,-3.80
2019-01-04T03:37:47.480Z,-3.50
2019-01-04T03:40:18.139Z,-3.40
2019-01-04T03:42:48.730Z,-3.30
2019-01-04T03:45:19.229Z,-3.30
2019-01-04T03:47:49.819Z,-3.40
2019-01-04T03:50:20.384Z,-3.60
2019-01-04T03:52:51.094Z,-3.60
2019-01-04T03:55:21.584Z,-3.80
2019-01-04T03:57:52.090Z,-3.70
2019-01-04T04:00:22.628Z,-3.50
2019-01-04T04:02:53.299Z,-3.50
2019-01-04T04:05:23.934Z,-3.60
2019-01-04T04:07:54.483Z,-3.60
2019-01-04T04:10:24.904Z,-3.50
2019-01-04T04:12:55.469Z,-3.50
2019-01-04T04:15:25.944Z,-3.70
2019-01-04T04:17:56.364Z,-3.70
2019-01-04T04:20:26.940Z,-3.60
2019-01-04T04:22:57.280Z,-3.50
2019-01-04T04:25:27.754Z,-3.40
2019-01-04T04:28:00.038Z,-3.50
2019-01-04T04:30:30.568Z,-3.50
2019-01-04T04:33:01.014Z,-3.50
2019-01-04T04:35:31.529Z,-3.50
2019-01-04T04:38:01.994Z,-3.60
2019-01-04T04:40:32.489Z,-3.70
2019-01-04T04:43:02.872Z,-3.80
2019-01-04T04:45:33.349Z,-3.80
2019-01-04T04:48:03.958Z,-3.80
2019-01-04T04:50:34.469Z,-3.70
2019-01-04T04:53:04.954Z,-3.70
2019-01-04T04:55:35.386Z,-3.50
2019-01-04T04:58:05.909Z,-3.30
2019-01-04T05:00:36.281Z,-3.30
2019-01-04T05:03:06.699Z,-3.40
2019-01-04T05:05:37.314Z,-3.70
2019-01-04T05:08:07.787Z,-4.00
2019-01-04T05:10:38.150Z,-4.20
2019-01-04T05:13:08.728Z,-4.10
2019-01-04T05:15:39.276Z,-4.00
2019-01-04T05:18:09.744Z,-4.10
2019-01-04T05:20:40.194Z,-4.00
2019-01-04T05:23:10.655Z,-3.90
2019-01-04T05:25:41.027Z,-3.80
2019-01-04T05:28:11.570Z,-3.70
2019-01-04T05:30:41.934Z,-3.90
2019-01-04T05:33:12.433Z,-4.10
2019-01-04T05:35:43.014Z,-4.10
2019-01-04T05:38:13.419Z,-4.30
2019-01-04T05:40:43.908Z,-4.30
2019-01-04T05:43:14.539Z,-4.20
2019-01-04T05:45:44.994Z,-4.20
2019-01-04T05:48:15.434Z,-4.20
2019-01-04T05:50:46.020Z,-4.20
2019-01-04T05:53:16.369Z,-4.20
2019-01-04T05:55:46.779Z,-4.30
2019-01-04T05:58:17.528Z,-4.20
2019-01-04T06:00:48.220Z,-4.20
2019-01-04T06:03:18.893Z,-4.20
2019-01-04T06:05:49.559Z,-4.10
2019-01-04T06:08:20.154Z,-3.90
2019-01-04T06:10:50.669Z,-3.90
2019-01-04T06:13:21.114Z,-3.90
2019-01-04T06:15:51.459Z,-3.80
2019-01-04T06:18:21.949Z,-3.80
2019-01-04T06:20:52.818Z,-3.90
2019-01-04T06:23:23.303Z,-3.90
2019-01-04T06:25:53.659Z,-3.80
2019-01-04T06:28:24.086Z,-3.70
2019-01-04T06:30:54.504Z,-4.10
2019-01-04T06:33:24.850Z,-4.30
2019-01-04T06:35:55.619Z,-4.70
2019-01-04T06:38:26.093Z,-4.60
2019-01-04T06:40:56.455Z,-4.40
2019-01-04T06:43:26.930Z,-4.30
2019-01-04T06:45:57.339Z,-4.30
2019-01-04T06:48:27.753Z,-4.40
2019-01-04T06:50:58.335Z,-4.50
2019-01-04T06:53:28.891Z,-4.50
2019-01-04T06:56:03.955Z,-4.30
2019-01-04T06:58:34.336Z,-4.20
2019-01-04T07:01:04.714Z,-4.10
2019-01-04T07:03:35.278Z,-4.30
2019-01-04T07:06:05.624Z,-4.50
2019-01-04T07:08:35.985Z,-4.60
2019-01-04T07:11:06.553Z,-4.50
2019-01-04T07:13:36.981Z,-4.50
2019-01-04T07:16:48.769Z,-4.30
2019-01-04T07:19:19.420Z,-4.50
2019-01-04T07:21:49.959Z,-4.50
2019-01-04T07:24:20.544Z,-4.40
2019-01-04T07:26:52.149Z,-4.20
2019-01-04T07:29:23.071Z,-4.10
2019-01-04T07:31:53.649Z,-4.00
2019-01-04T07:34:24.089Z,-3.90
2019-01-04T07:36:54.719Z,-3.70
2019-01-04T07:39:25.252Z,-3.50
2019-01-04T07:41:55.799Z,-3.40
2019-01-04T07:44:26.379Z,-3.40
2019-01-04T07:46:56.913Z,-3.40
2019-01-04T07:49:27.535Z,-3.30
2019-01-04T07:51:58.227Z,-3.30
2019-01-04T07:54:28.795Z,-3.10
2019-01-04T07:56:59.319Z,-2.90
2019-01-04T07:59:30.141Z,-2.80
2019-01-04T08:02:00.744Z,-2.60
2019-01-04T08:04:31.214Z,-2.60
2019-01-04T08:07:01.826Z,-2.40
2019-01-04T08:09:32.348Z,-2.30
2019-01-04T08:12:02.894Z,-2.30
2019-01-04T08:14:33.502Z,-2.20
2019-01-04T08:17:04.194Z,-2.10
2019-01-04T08:19:34.709Z,-2.10
2019-01-04T08:22:05.175Z,-2.20
2019-01-04T08:24:35.714Z,-2.10
2019-01-04T08:27:06.296Z,-1.90
2019-01-04T08:29:37.011Z,-1.70
2019-01-04T08:32:07.614Z,-1.60
2019-01-04T08:34:38.119Z,-1.40
2019-01-04T08:37:08.959Z,-1.20
2019-01-04T08:39:39.619Z,-1.00
2019-01-04T08:42:10.090Z,-0.80
2019-01-04T08:44:40.694Z,-0.60
2019-01-04T08:47:11.219Z,-0.40
2019-01-04T08:49:41.789Z,-0.30
2019-01-04T08:52:12.439Z,-0.10
2019-01-04T08:54:43.169Z,0.00
2019-01-04T08:57:13.769Z,0.00
2019-01-04T08:59:44.560Z,0.10
2019-01-04T09:02:15.094Z,0.00
2019-01-04T09:04:45.629Z,0.10
2019-01-04T09:07:16.215Z,0.10
2019-01-04T09:09:46.979Z,0.00
2019-01-04T09:12:17.674Z,0.10
2019-01-04T09:14:48.369Z,0.20
2019-01-04T09:17:19.049Z,0.50
2019-01-04T09:19:49.794Z,0.30
2019-01-04T09:22:20.394Z,0.10
2019-01-04T09:24:50.924Z,0.10
2019-01-04T09:27:21.634Z,0.20
2019-01-04T09:29:52.369Z,0.20
2019-01-04T09:32:22.949Z,0.30
2019-01-04T09:34:53.537Z,0.60
2019-01-04T09:37:24.120Z,0.80
2019-01-04T09:39:54.799Z,0.70
2019-01-04T09:42:25.619Z,0.70
2019-01-04T09:44:56.262Z,0.70
2019-01-04T09:47:26.944Z,0.70
2019-01-04T09:49:57.569Z,0.90
2019-01-04T09:52:28.439Z,0.80
2019-01-04T09:54:59.064Z,0.80
2019-01-04T09:57:29.574Z,1.00
2019-01-04T10:00:00.391Z,1.10
2019-01-04T10:02:30.955Z,1.20
2019-01-04T10:05:01.530Z,1.40
2019-01-04T10:07:32.470Z,1.40
2019-01-04T10:10:03.235Z,1.60
2019-01-04T10:12:33.674Z,1.70
2019-01-04T10:15:04.569Z,1.70
2019-01-04T10:17:35.135Z,1.70
2019-01-04T10:20:05.969Z,1.70
2019-01-04T10:22:36.589Z,1.70
2019-01-04T10:25:07.194Z,1.80
2019-01-04T10:27:37.969Z,1.90
2019-01-04T10:30:09.629Z,2.10
2019-01-04T10:32:40.169Z,2.20
2019-01-04T10:35:10.957Z,2.50
2019-01-04T10:37:41.634Z,2.30
2019-01-04T10:40:12.139Z,2.40
2019-01-04T10:42:42.684Z,2.60
2019-01-04T10:45:13.360Z,2.70
2019-01-04T10:47:43.999Z,2.70
2019-01-04T10:50:14.444Z,3.00
2019-01-04T10:52:45.154Z,2.80
2019-01-04T10:55:15.758Z,2.90
2019-01-04T10:57:46.458Z,3.10
2019-01-04T11:00:17.209Z,3.30
2019-01-04T11:02:47.769Z,3.30
2019-01-04T11:05:18.248Z,3.20
2019-01-04T11:07:49.209Z,3.20
2019-01-04T11:10:19.754Z,3.10
2019-01-04T11:12:50.359Z,3.20
2019-01-04T11:15:20.959Z,3.50
2019-01-04T11:17:51.666Z,3.50
2019-01-04T11:20:40.889Z,3.50
2019-01-04T11:24:02.869Z,3.40
2019-01-04T11:26:56.100Z,3.20
2019-01-04T11:30:10.214Z,3.20
2019-01-04T11:33:09.354Z,3.10
2019-01-04T11:36:16.399Z,3.10
2019-01-04T11:39:21.314Z,3.00
2019-01-04T11:42:35.598Z,3.20
2019-01-04T11:45:52.678Z,3.20
2019-01-04T11:48:48.889Z,3.30
2019-01-04T11:51:48.619Z,3.10
2019-01-04T11:54:22.854Z,3.10
2019-01-04T11:56:53.584Z,3.20
2019-01-04T11:59:24.219Z,3.20
2019-01-04T12:01:54.739Z,3.20
2019-01-04T12:04:25.494Z,3.30
2019-01-04T12:06:56.039Z,3.30
2019-01-04T12:09:26.749Z,3.30
2019-01-04T12:11:57.410Z,3.40
2019-01-04T12:14:28.208Z,3.50
2019-01-04T12:16:59.034Z,3.50
2019-01-04T12:19:29.790Z,3.70
2019-01-04T12:22:00.460Z,3.90
2019-01-04T12:24:31.023Z,4.00
2019-01-04T12:27:01.834Z,3.90
2019-01-04T12:29:32.389Z,3.90
2019-01-04T12:32:03.005Z,4.00
2019-01-04T12:34:33.734Z,4.10
2019-01-04T12:37:04.276Z,4.10
2019-01-04T12:39:34.834Z,4.20
2019-01-04T12:42:05.534Z,4.00
2019-01-04T12:44:36.114Z,4.00
2019-01-04T12:47:06.769Z,4.00
2019-01-04T12:49:37.700Z,4.10
2019-01-04T12:52:08.413Z,4.20
2019-01-04T12:54:39.368Z,4.20
2019-01-04T12:57:10.041Z,4.40
2019-01-04T12:59:40.584Z,4.60
2019-01-04T13:02:11.334Z,4.60
2019-01-04T13:04:41.949Z,4.60
2019-01-04T13:07:12.495Z,4.50
2019-01-04T13:09:43.234Z,4.50
2019-01-04T13:12:14.019Z,4.20
2019-01-04T13:14:44.609Z,4.10
2019-01-04T13:17:15.229Z,3.90
2019-01-04T13:19:45.878Z,3.90
2019-01-04T13:22:16.904Z,3.80
2019-01-04T13:24:47.683Z,3.80
2019-01-04T13:27:18.359Z,3.70
2019-01-04T13:29:49.118Z,3.70
2019-01-04T13:32:19.734Z,3.70
2019-01-04T13:34:50.759Z,3.70
2019-01-04T13:37:21.599Z,3.80
2019-01-04T13:39:52.324Z,3.90
2019-01-04T13:42:23.342Z,4.00
2019-01-04T13:44:54.116Z,4.00
2019-01-04T13:47:24.679Z,4.10
2019-01-04T13:49:55.509Z,4.10
2019-01-04T13:52:26.429Z,4.20
2019-01-04T13:54:57.076Z,4.20
2019-01-04T13:57:27.969Z,4.30
2019-01-04T13:59:58.724Z,4.40
2019-01-04T14:02:29.775Z,4.30
2019-01-04T14:05:00.644Z,4.30
2019-01-04T14:07:31.610Z,4.30
2019-01-04T14:10:02.287Z,4.20
2019-01-04T14:12:33.173Z,4.20
2019-01-04T14:15:04.059Z,4.10
2019-01-04T14:17:34.714Z,4.10
2019-01-04T14:20:05.645Z,4.10
2019-01-04T14:22:36.505Z,4.10
2019-01-04T14:25:07.896Z,4.00
2019-01-04T14:27:39.079Z,4.00
2019-01-04T14:30:11.365Z,3.90
2019-01-04T14:32:42.285Z,3.80
2019-01-04T14:35:13.029Z,3.90
2019-01-04T14:37:43.648Z,3.80
2019-01-04T14:40:14.394Z,3.80
2019-01-04T14:42:45.339Z,3.70
2019-01-04T14:45:16.345Z,3.70
2019-01-04T14:47:47.210Z,3.70
2019-01-04T14:50:18.269Z,3.60
2019-01-04T14:52:49.139Z,3.50
2019-01-04T14:55:20.064Z,3.40
2019-01-04T14:57:50.674Z,3.30
2019-01-04T15:00:21.509Z,3.30
2019-01-04T15:02:52.449Z,3.30
2019-01-04T15:05:23.351Z,3.20
2019-01-04T15:07:54.009Z,3.10
2019-01-04T15:10:24.721Z,3.10
2019-01-04T15:12:55.974Z,3.10
2019-01-04T15:15:26.740Z,3.10
2019-01-04T15:17:57.884Z,3.00
2019-01-04T15:20:28.674Z,3.00
2019-01-04T15:22:59.225Z,3.00
2019-01-04T15:25:29.854Z,2.90
2019-01-04T15:28:00.639Z,2.90
2019-01-04T15:30:31.435Z,2.90
2019-01-04T15:33:02.110Z,2.90
2019-01-04T15:35:32.924Z,2.80
2019-01-04T15:38:03.693Z,2.60
2019-01-04T15:40:34.415Z,2.40
2019-01-04T15:43:05.229Z,2.40
2019-01-04T15:45:36.034Z,2.50
2019-01-04T15:48:06.679Z,2.50
2019-01-04T15:50:37.474Z,2.40
2019-01-04T15:53:08.179Z,2.40
2019-01-04T15:55:38.881Z,2.40
2019-01-04T15:58:09.560Z,2.40
2019-01-04T16:00:40.284Z,2.40
2019-01-04T16:03:10.989Z,2.30
2019-01-04T16:05:42.014Z,2.20
2019-01-04T16:08:12.660Z,2.10
2019-01-04T16:10:43.254Z,2.10
2019-01-04T16:13:13.879Z,2.00
2019-01-04T16:15:44.449Z,1.90
2019-01-04T16:18:15.074Z,1.80
2019-01-04T16:20:45.935Z,1.90
2019-01-04T16:23:16.479Z,2.00
2019-01-04T16:25:47.159Z,2.00
2019-01-04T16:28:17.769Z,1.90
2019-01-04T16:30:48.349Z,1.80
2019-01-04T16:33:18.869Z,1.70
2019-01-04T16:35:49.434Z,1.60
2019-01-04T16:38:20.034Z,1.30
2019-01-04T16:40:50.639Z,1.30
2019-01-04T16:43:21.464Z,1.10
2019-01-04T16:45:52.104Z,1.10
2019-01-04T16:48:22.974Z,1.10
2019-01-04T16:50:53.744Z,1.20
2019-01-04T16:53:24.379Z,1.20
2019-01-04T16:55:55.014Z,1.10
2019-01-04T16:58:26.844Z,1.00
2019-01-04T17:00:57.632Z,1.00
2019-01-04T17:03:28.294Z,1.00
2019-01-04T17:05:59.264Z,0.90
2019-01-04T17:08:30.218Z,0.80
2019-01-04T17:11:00.960Z,0.90
2019-01-04T17:13:31.745Z,0.90
2019-01-04T17:16:02.433Z,0.80
2019-01-04T17:18:32.939Z,0.70
2019-01-04T17:21:03.974Z,0.70
2019-01-04T17:23:34.403Z,0.70
2019-01-04T17:26:05.235Z,0.20
2019-01-04T17:28:35.896Z,0.20
2019-01-04T17:31:06.634Z,0.10
2019-01-04T17:33:37.668Z,0.00
2019-01-04T17:36:08.884Z,0.10
2019-01-04T17:38:39.559Z,0.20
2019-01-04T17:41:10.240Z,0.20
2019-01-04T17:43:41.174Z,0.20
2019-01-04T17:46:11.784Z,0.10
2019-01-04T17:48:42.379Z,0.00
2019-01-04T17:51:13.274Z,0.20
2019-01-04T17:53:43.949Z,0.10
2019-01-04T17:56:14.754Z,0.10
2019-01-04T17:58:45.619Z,0.00
2019-01-04T18:01:16.344Z,-0.10
2019-01-04T18:03:46.994Z,-0.20
2019-01-04T18:06:18.123Z,-0.50
2019-01-04T18:08:49.144Z,-0.40
2019-01-04T18:11:19.699Z,-0.30
2019-01-04T18:13:50.629Z,-0.40
2019-01-04T18:16:21.294Z,-0.60
2019-01-04T18:18:51.865Z,-0.50
2019-01-04T18:21:22.637Z,-0.40
2019-01-04T18:23:53.267Z,-0.50
2019-01-04T18:26:24.497Z,-0.50
2019-01-04T18:28:55.509Z,-0.40
2019-01-04T18:31:26.229Z,-0.40
2019-01-04T18:33:56.934Z,-0.60
2019-01-04T18:36:27.527Z,-0.40
2019-01-04T18:38:58.119Z,-0.40
2019-01-04T18:41:29.135Z,-0.30
2019-01-04T18:44:00.059Z,-0.40
2019-01-04T18:46:30.690Z,-0.20
2019-01-04T18:49:01.334Z,-0.10
2019-01-04T18:51:31.929Z,-0.20
2019-01-04T18:54:02.494Z,-0.30
2019-01-04T18:56:33.809Z,-0.40
2019-01-04T18:59:04.479Z,-0.40
2019-01-04T19:01:35.155Z,-0.30
2019-01-04T19:04:05.819Z,-0.20
2019-01-04T19:06:37.058Z,-0.10
2019-01-04T19:09:09.651Z,-0.20
2019-01-04T19:11:40.314Z,-0.10
2019-01-04T19:14:11.709Z,-0.10
2019-01-04T19:16:42.836Z,0.00
2019-01-04T19:19:13.889Z,-0.20
2019-01-04T19:21:44.704Z,-0.20
2019-01-04T19:24:15.649Z,-0.60
2019-01-04T19:26:46.274Z,-0.80
2019-01-04T19:29:16.899Z,-0.80
2019-01-04T19:31:47.549Z,-0.80
2019-01-04T19:34:18.189Z,-0.90
2019-01-04T19:36:48.834Z,-1.00
2019-01-04T19:39:19.414Z,-1.00
2019-01-04T19:41:50.055Z,-1.00
2019-01-04T19:44:20.775Z,-0.90
2019-01-04T19:46:51.539Z,-0.90
2019-01-04T19:49:22.189Z,-1.00
2019-01-04T19:51:52.881Z,-1.00
2019-01-04T19:54:23.699Z,-1.00
2019-01-04T19:56:54.724Z,-0.90
2019-01-04T19:59:25.364Z,-0.80
2019-01-04T20:01:55.999Z,-0.80
2019-01-04T20:04:26.759Z,-0.70
2019-01-04T20:08:28.524Z,-0.60
2019-01-04T20:11:53.370Z,-0.70
2019-01-04T20:15:22.259Z,-0.80
2019-01-04T20:18:21.015Z,-0.70
2019-01-04T20:21:19.299Z,-0.90
2019-01-04T20:24:07.159Z,-1.00
2019-01-04T20:26:54.624Z,-1.00
2019-01-04T20:29:46.840Z,-1.00
2019-01-04T20:32:34.549Z,-1.00
2019-01-04T20:35:22.363Z,-1.10
2019-01-04T20:38:10.026Z,-1.20
2019-01-04T20:41:02.634Z,-1.20
2019-01-04T20:44:03.851Z,-1.10
2019-01-04T20:47:03.406Z,-1.00
2019-01-04T20:49:58.609Z,-0.80
2019-01-04T20:52:46.414Z,-0.80
2019-01-04T20:55:47.709Z,-0.80
2019-01-04T20:58:55.324Z,-0.90
2019-01-04T21:01:50.776Z,-1.10
2019-01-04T21:04:38.594Z,-1.20
2019-01-04T21:07:26.859Z,-1.30
2019-01-04T21:10:08.439Z,-1.50
2019-01-04T21:13:07.084Z,-1.60
2019-01-04T21:15:56.635Z,-1.70
2019-01-04T21:18:57.926Z,-1.80
2019-01-04T21:21:59.506Z,-1.70
2019-01-04T21:24:45.629Z,-1.60
2019-01-04T21:27:33.429Z,-1.70
2019-01-04T21:30:25.749Z,-1.80
2019-01-04T21:33:13.730Z,-1.70
2019-01-04T21:36:03.105Z,-1.60
2019-01-04T21:38:50.869Z,-1.50
2019-01-04T21:41:52.459Z,-1.70
2019-01-04T21:44:38.709Z,-1.70
2019-01-04T21:47:17.209Z,-1.70
2019-01-04T21:50:04.805Z,-1.60
2019-01-04T21:52:52.394Z,-1.50
2019-01-04T21:55:42.005Z,-1.50
2019-01-04T21:58:31.310Z,-1.50
2019-01-04T22:01:21.193Z,-1.50
2019-01-04T22:04:08.794Z,-1.60
2019-01-04T22:07:16.256Z,-1.70
2019-01-04T22:10:06.114Z,-1.60
2019-01-04T22:12:53.629Z,-1.60
2019-01-04T22:15:41.374Z,-1.60
2019-01-04T22:18:42.874Z,-1.60
2019-01-04T22:21:35.229Z,-1.60
2019-01-04T22:24:23.139Z,-1.70
2019-01-04T22:27:08.604Z,-1.70
2019-01-04T22:29:56.314Z,-1.60
2019-01-04T22:32:48.586Z,-1.60
2019-01-04T22:35:47.254Z,-1.60
2019-01-04T22:38:37.154Z,-1.60
2019-01-04T22:41:44.469Z,-1.70
2019-01-04T22:44:51.799Z,-1.90
2019-01-04T22:47:41.306Z,-1.90
2019-01-04T22:50:29.034Z,-2.00
2019-01-04T22:53:16.689Z,-2.00
2019-01-04T22:56:04.379Z,-1.90
2019-01-04T22:59:08.915Z,-1.70
2019-01-04T23:02:07.454Z,-1.80
2019-01-04T23:05:03.385Z,-2.10
2019-01-04T23:07:55.809Z,-2.00
2019-01-04T23:10:57.489Z,-2.10
2019-01-04T23:14:01.629Z,-2.10
2019-01-04T23:17:00.149Z,-2.00
2019-01-04T23:19:49.384Z,-2.00
2019-01-04T23:23:10.244Z,-1.90
2019-01-04T23:26:19.559Z,-1.90
2019-01-04T23:29:07.244Z,-1.90
2019-01-04T23:31:54.890Z,-1.90
2019-01-04T23:35:01.255Z,-1.90
2019-01-04T23:37:56.594Z,-2.00
2019-01-04T23:41:04.049Z,-2.20
2019-01-04T23:44:04.942Z,-2.10
2019-01-04T23:46:52.623Z,-2.00
2019-01-04T23:49:40.029Z,-2.00
2019-01-04T23:52:44.349Z,-2.00
2019-01-04T23:55:26.909Z,-1.80
2019-01-04T23:58:23.852Z,-2.50
